Time;durP1;ratioP1;P1;durP2;ratioP2;P2;SDS_P1;SDS_P2;PMS_P1;PMS_P2;Temp;Humidity;BMP_temperature;BMP_pressure;BME280_temperature;BME280_humidity;BME280_pressure;Samples;Min_cycle;Max_cycle;Signal;HPM_P1;HPM_P2
2024/01/22 00:01:00;;;;;;;;;;;;;;;-0.16;63.92;101555.16;4992725;28;19914;-78
2024/01/22 00:03:25;;;;;;;;;;;;;;;-0.17;64.37;101556.06;4992621;28;19920;-78
2024/01/22 00:05:50;;;;;;;;;;;;;;;-0.18;63.96;101559.56;4992720;28;19920;-78
2024/01/22 00:08:16;;;;;;;;;;;;;;;-0.20;64.48;101553.59;4992567;28;19925;-78
2024/01/22 00:10:41;;;;;;;;;;;;;;;-0.28;63.88;101553.88;4992618;28;20376;-79
2024/01/22 00:13:06;;;;;;;;;;;;;;;-0.31;64.05;101554.00;4992608;28;19960;-78
2024/01/22 00:15:32;;;;;;;;;;;;;;;-0.36;63.76;101548.16;4992446;28;19914;-79
2024/01/22 00:17:57;;;;;;;;;;;;;;;-0.41;64.39;101544.88;4990850;28;19925;-78
2024/01/22 00:20:22;;;;;;;;;;;;;;;-0.50;63.60;101548.69;4993491;28;19921;-79
2024/01/22 00:22:48;;;;;;;;;;;;;;;-0.47;65.17;101560.69;4979199;28;19924;-78
2024/01/22 00:25:13;;;;;;;;;;;;;;;-0.49;64.67;101554.72;4978634;28;19920;-78
2024/01/22 00:27:38;;;;;;;;;;;;;;;-0.48;64.37;101562.44;4996388;28;19906;-78
2024/01/22 00:30:06;;;;;;;;;;;;;;;-0.51;64.35;101566.91;4997290;28;19972;-79
2024/01/22 00:32:31;;;;;;;;;;;;;;;-0.51;64.12;101561.72;4997888;28;20012;-79
2024/01/22 00:34:56;;;;;;;;;;;;;;;-0.50;64.63;101558.22;4997429;28;19949;-78
2024/01/22 00:37:21;;;;;;;;;;;;;;;-0.57;63.96;101557.59;4996994;28;20379;-78
2024/01/22 00:39:47;;;;;;;;;;;;;;;-0.61;63.72;101556.03;4996705;28;19964;-79
2024/01/22 00:42:12;;;;;;;;;;;;;;;-0.61;63.86;101556.03;4995898;28;19914;-78
2024/01/22 00:44:38;;;;;;;;;;;;;;;-0.56;64.43;101561.03;4996734;28;19976;-79
2024/01/22 00:47:03;;;;;;;;;;;;;;;-0.60;63.96;101564.66;4995977;28;20421;-78
2024/01/22 00:49:28;;;;;;;;;;;;;;;-0.63;63.38;101563.03;4995956;28;19922;-78
2024/01/22 00:51:53;;;;;;;;;;;;;;;-0.66;64.33;101558.78;4995864;28;20056;-78
2024/01/22 00:54:19;;;;;;;;;;;;;;;-0.72;63.47;101550.41;4996042;28;20051;-79
2024/01/22 00:56:44;;;;;;;;;;;;;;;-0.70;63.82;101556.38;4995603;28;19921;-78
2024/01/22 00:59:09;;;;;;;;;;;;;;;-0.70;63.75;101553.78;4978994;28;20383;-79
2024/01/22 01:01:35;;;;;;;;;;;;;;;-0.76;64.28;101559.16;4997751;28;19914;-79
2024/01/22 01:04:00;;;;;;;;;;;;;;;-0.79;63.71;101551.50;4998250;28;20386;-79
2024/01/22 01:06:25;;;;;;;;;;;;;;;-0.81;62.85;101561.91;4997258;28;19914;-79
2024/01/22 01:08:50;;;;;;;;;;;;;;;-0.83;63.06;101553.34;4996583;28;19913;-78
2024/01/22 01:11:16;;;;;;;;;;;;;;;-0.79;63.77;101552.34;4996303;28;19953;-79
2024/01/22 01:13:41;;;;;;;;;;;;;;;-0.81;63.71;101551.56;4997082;28;19914;-79
2024/01/22 01:16:06;;;;;;;;;;;;;;;-0.82;64.17;101555.03;4996719;28;20446;-79
2024/01/22 01:18:31;;;;;;;;;;;;;;;-0.86;63.91;101561.25;4997072;28;19924;-79
2024/01/22 01:20:57;;;;;;;;;;;;;;;-0.88;63.41;101555.28;4997035;28;20008;-78
2024/01/22 01:23:22;;;;;;;;;;;;;;;-0.90;63.84;101562.25;4997032;28;19920;-78
2024/01/22 01:25:47;;;;;;;;;;;;;;;-0.92;63.82;101552.84;4979502;28;20446;-79
2024/01/22 01:28:13;;;;;;;;;;;;;;;-0.98;62.76;101553.91;4996726;28;20417;-79
2024/01/22 01:30:38;;;;;;;;;;;;;;;-0.94;63.00;101555.50;4979140;28;19914;-79
2024/01/22 01:33:03;;;;;;;;;;;;;;;-0.96;62.87;101552.09;4980023;28;19918;-78
2024/01/22 01:35:29;;;;;;;;;;;;;;;-0.93;64.23;101556.34;4999829;28;19914;-78
2024/01/22 01:37:54;;;;;;;;;;;;;;;-0.94;63.96;101545.13;5000358;28;19924;-79
2024/01/22 01:40:20;;;;;;;;;;;;;;;-0.96;62.02;101542.59;4996416;28;19913;-79
2024/01/22 01:42:45;;;;;;;;;;;;;;;-0.93;62.25;101548.56;4995544;28;19918;-79
2024/01/22 01:45:14;;;;;;;;;;;;;;;-0.92;63.17;101543.31;4994860;28;19956;-79
2024/01/22 01:47:45;;;;;;;;;;;;;;;-0.96;62.32;101540.00;4994627;28;19918;-78
2024/01/22 01:50:10;;;;;;;;;;;;;;;-1.03;61.98;101535.09;4994770;28;19948;-78
2024/01/22 01:52:36;;;;;;;;;;;;;;;-1.09;61.87;101530.97;4994683;28;19918;-78
2024/01/22 01:55:02;;;;;;;;;;;;;;;-1.12;62.20;101535.41;4994390;28;20440;-78
2024/01/22 01:57:27;;;;;;;;;;;;;;;-1.17;61.77;101543.34;4977124;28;19922;-78
2024/01/22 01:59:52;;;;;;;;;;;;;;;-1.22;62.17;101544.41;4995283;28;20316;-78
2024/01/22 02:02:20;;;;;;;;;;;;;;;-1.21;63.21;101533.16;4995718;28;19993;-78
2024/01/22 02:04:45;;;;;;;;;;;;;;;-1.24;62.16;101531.50;4995745;28;19914;-78
2024/01/22 02:07:10;;;;;;;;;;;;;;;-1.18;62.41;101543.41;4978640;28;19921;-78
2024/01/22 02:09:49;;;;;;;;;;;;;;;-1.18;62.58;101540.81;4996065;28;19940;-78
2024/01/22 02:12:15;;;;;;;;;;;;;;;-1.36;62.06;101539.72;4995712;28;20001;-78
2024/01/22 02:14:41;;;;;;;;;;;;;;;-1.48;61.95;101535.81;4995607;28;19914;-78
2024/01/22 02:17:06;;;;;;;;;;;;;;;-1.55;62.39;101541.22;4994115;28;19925;-78
2024/01/22 02:19:32;;;;;;;;;;;;;;;-1.56;62.47;101532.59;4994214;28;19984;-78
2024/01/22 02:21:57;;;;;;;;;;;;;;;-1.54;62.93;101538.56;4978173;28;19949;-78
2024/01/22 02:24:22;;;;;;;;;;;;;;;-1.62;63.43;101531.06;4995833;28;19914;-78
2024/01/22 02:26:47;;;;;;;;;;;;;;;-1.65;63.45;101523.41;4995498;28;19914;-78
2024/01/22 02:29:13;;;;;;;;;;;;;;;-1.64;62.66;101524.25;4994361;28;19929;-78
2024/01/22 02:31:38;;;;;;;;;;;;;;;-1.62;63.17;101517.28;4978138;28;19914;-78
2024/01/22 02:34:03;;;;;;;;;;;;;;;-1.54;63.75;101522.19;4995338;28;19914;-78
2024/01/22 02:36:29;;;;;;;;;;;;;;;-1.51;63.45;101522.94;4995408;28;19914;-78
2024/01/22 02:38:54;;;;;;;;;;;;;;;-1.50;63.21;101518.59;4978119;28;20004;-78
2024/01/22 02:41:19;;;;;;;;;;;;;;;-1.49;62.67;101521.13;4995543;28;19952;-78
2024/01/22 02:43:45;;;;;;;;;;;;;;;-1.47;63.29;101521.13;4993818;28;20045;-78
2024/01/22 02:46:10;;;;;;;;;;;;;;;-1.43;62.71;101513.19;4993868;28;20430;-78
2024/01/22 02:48:35;;;;;;;;;;;;;;;-1.41;63.08;101520.91;4992254;28;19921;-78
2024/01/22 02:51:01;;;;;;;;;;;;;;;-1.51;62.68;101520.34;4976801;28;20296;-78
2024/01/22 02:53:27;;;;;;;;;;;;;;;-1.51;62.98;101519.50;4976388;28;19924;-78
2024/01/22 02:55:52;;;;;;;;;;;;;;;-1.46;62.74;101526.25;4975964;28;19914;-78
2024/01/22 02:58:17;;;;;;;;;;;;;;;-1.36;62.84;101522.44;4993264;28;20457;-78
2024/01/22 03:00:43;;;;;;;;;;;;;;;-1.30;63.07;101530.00;4993680;28;19913;-78
2024/01/22 03:03:08;;;;;;;;;;;;;;;-1.30;62.35;101521.38;4993181;28;19921;-78
2024/01/22 03:05:33;;;;;;;;;;;;;;;-2.64;61.68;101305.94;4993615;28;20009;-78
2024/01/22 03:08:00;;;;;;;;;;;;;;;-1.25;63.46;101529.81;4993302;28;20417;-78
2024/01/22 03:10:25;;;;;;;;;;;;;;;-1.18;62.93;101527.88;4993430;28;20005;-78
2024/01/22 03:12:50;;;;;;;;;;;;;;;-1.17;63.59;101525.22;4976025;28;19933;-78
2024/01/22 03:15:15;;;;;;;;;;;;;;;-1.17;63.25;101530.41;4993667;28;20454;-79
2024/01/22 03:17:41;;;;;;;;;;;;;;;-1.18;63.48;101528.72;4975770;28;20051;-78
2024/01/22 03:20:06;;;;;;;;;;;;;;;-1.17;62.43;101534.75;4991880;28;19925;-78
2024/01/22 03:22:32;;;;;;;;;;;;;;;-1.13;62.30;101538.91;4993158;28;20391;-78
2024/01/22 03:24:57;;;;;;;;;;;;;;;-1.11;62.10;101539.69;4993661;28;19992;-78
2024/01/22 03:27:22;;;;;;;;;;;;;;;-1.24;61.26;101535.84;4976139;28;19921;-78
2024/01/22 03:29:47;;;;;;;;;;;;;;;-1.29;62.52;101548.97;4994182;28;20453;-78
2024/01/22 03:32:13;;;;;;;;;;;;;;;-1.37;61.93;101540.63;4994735;28;19937;-78
2024/01/22 03:34:38;;;;;;;;;;;;;;;-1.38;62.18;101544.09;4995096;28;19914;-78
2024/01/22 03:37:03;;;;;;;;;;;;;;;-1.30;63.08;101548.13;4993763;28;19921;-78
2024/01/22 03:39:28;;;;;;;;;;;;;;;-1.33;62.56;101555.16;4993834;28;19956;-78
2024/01/22 03:41:54;;;;;;;;;;;;;;;-1.36;62.92;101548.34;4976551;28;19914;-78
2024/01/22 03:44:19;;;;;;;;;;;;;;;-1.36;63.19;101547.50;4993544;28;20428;-78
2024/01/22 03:46:44;;;;;;;;;;;;;;;-1.29;63.57;101546.38;4992915;28;19989;-78
2024/01/22 03:49:10;;;;;;;;;;;;;;;-1.25;62.99;101553.16;4975922;28;20291;-78
2024/01/22 03:51:36;;;;;;;;;;;;;;;-1.22;63.38;101545.28;4993000;28;19914;-78
2024/01/22 03:54:01;;;;;;;;;;;;;;;-1.20;63.13;101555.59;4993677;28;20445;-78
2024/01/22 03:56:26;;;;;;;;;;;;;;;-1.22;63.15;101549.59;4997003;28;19918;-78
2024/01/22 03:58:52;;;;;;;;;;;;;;;-1.21;63.68;101553.88;4996993;28;20016;-78
2024/01/22 04:01:18;;;;;;;;;;;;;;;-1.19;64.11;101554.69;4996617;28;19972;-78
2024/01/22 04:03:44;;;;;;;;;;;;;;;-1.16;63.13;101557.16;4997106;28;19996;-78
2024/01/22 04:06:09;;;;;;;;;;;;;;;-1.11;63.57;101565.63;4996836;28;20000;-78
2024/01/22 04:08:34;;;;;;;;;;;;;;;-1.06;63.66;101561.13;4996921;28;19972;-78
2024/01/22 04:10:59;;;;;;;;;;;;;;;-1.04;63.53;101569.69;4996796;28;20387;-78
2024/01/22 04:13:25;;;;;;;;;;;;;;;-1.03;63.91;101567.03;4996827;28;19913;-78
2024/01/22 04:15:53;;;;;;;;;;;;;;;-1.01;63.19;101565.25;4980806;28;19936;-78
2024/01/22 04:18:19;;;;;;;;;;;;;;;-1.01;63.42;101561.81;4996696;28;19918;-78
2024/01/22 04:20:44;;;;;;;;;;;;;;;-1.01;63.38;101562.66;4980410;28;19929;-78
2024/01/22 04:23:09;;;;;;;;;;;;;;;-1.02;63.65;101560.09;4980549;28;19965;-78
2024/01/22 04:25:34;;;;;;;;;;;;;;;-1.01;63.38;101569.56;4996564;28;19918;-78
2024/01/22 04:28:00;;;;;;;;;;;;;;;-0.97;63.72;101564.22;4998143;28;19913;-78
2024/01/22 04:30:25;;;;;;;;;;;;;;;-0.95;63.69;101564.16;4997884;28;19953;-78
2024/01/22 04:32:50;;;;;;;;;;;;;;;-0.92;63.89;101561.47;4998320;28;19914;-78
2024/01/22 04:35:16;;;;;;;;;;;;;;;-0.91;63.42;101562.31;4998118;28;19917;-78
2024/01/22 04:37:41;;;;;;;;;;;;;;;-0.91;63.23;101563.16;4998552;28;19948;-79
2024/01/22 04:40:10;;;;;;;;;;;;;;;-0.96;63.94;101565.06;4998116;28;19918;-79
2024/01/22 04:42:36;;;;;;;;;;;;;;;-0.96;63.82;101567.66;4998894;28;19914;-79
2024/01/22 04:45:01;;;;;;;;;;;;;;;-0.97;64.11;101571.16;4997307;28;19914;-78
2024/01/22 04:47:26;;;;;;;;;;;;;;;-0.97;63.72;101573.75;4997281;28;19918;-79
2024/01/22 04:49:51;;;;;;;;;;;;;;;-0.96;63.75;101575.44;4997138;28;19910;-78
2024/01/22 04:52:16;;;;;;;;;;;;;;;-1.03;63.31;101584.34;4997143;28;19918;-78
2024/01/22 04:54:42;;;;;;;;;;;;;;;-1.15;63.44;101583.03;4997277;28;19914;-78
2024/01/22 04:57:07;;;;;;;;;;;;;;;-1.17;64.38;101583.97;4997048;28;20379;-78
2024/01/22 04:59:32;;;;;;;;;;;;;;;-1.13;64.58;101585.56;4997381;28;19921;-79
2024/01/22 05:01:57;;;;;;;;;;;;;;;-1.10;63.75;101583.72;4997093;28;19921;-79
2024/01/22 05:04:23;;;;;;;;;;;;;;;-1.09;63.76;101589.75;4997770;28;19913;-79
2024/01/22 05:06:48;;;;;;;;;;;;;;;-1.19;63.12;101594.41;4996601;28;19914;-79
2024/01/22 05:09:14;;;;;;;;;;;;;;;-1.19;64.11;101590.97;4997200;28;20369;-79
2024/01/22 05:11:40;;;;;;;;;;;;;;;-1.20;63.18;101597.03;4997018;28;19921;-78
2024/01/22 05:14:05;;;;;;;;;;;;;;;-1.19;63.84;101593.56;4996631;28;19913;-79
2024/01/22 05:16:30;;;;;;;;;;;;;;;-1.15;64.03;101590.81;4996803;28;19912;-79
2024/01/22 05:18:56;;;;;;;;;;;;;;;-1.14;63.45;101586.47;4996676;28;19918;-79
2024/01/22 05:21:21;;;;;;;;;;;;;;;-1.11;63.51;101588.94;4996852;28;20015;-79
2024/01/22 05:23:46;;;;;;;;;;;;;;;-1.09;63.48;101594.94;4979167;28;19925;-79
2024/01/22 05:26:12;;;;;;;;;;;;;;;-1.08;62.83;101588.84;4996419;28;19921;-79
2024/01/22 05:28:37;;;;;;;;;;;;;;;-1.05;63.62;101591.31;4996678;28;19945;-79
2024/01/22 05:31:02;;;;;;;;;;;;;;;-1.06;63.62;101592.22;4996738;28;20008;-79
2024/01/22 05:33:28;;;;;;;;;;;;;;;-1.04;63.15;101591.28;4996857;28;20002;-79
2024/01/22 05:35:55;;;;;;;;;;;;;;;-1.01;63.10;101588.56;4996995;28;19913;-79
2024/01/22 05:38:20;;;;;;;;;;;;;;;-0.99;63.62;101581.59;4997232;28;19952;-79
2024/01/22 05:40:45;;;;;;;;;;;;;;;-0.98;63.45;101588.47;4996879;28;20395;-79
2024/01/22 05:43:10;;;;;;;;;;;;;;;-0.97;63.04;101597.94;4997239;28;19914;-79
2024/01/22 05:45:36;;;;;;;;;;;;;;;-0.96;63.26;101593.59;4995156;28;19949;-79
2024/01/22 05:48:01;;;;;;;;;;;;;;;-0.90;63.29;101598.56;4995455;28;19989;-79
2024/01/22 05:50:26;;;;;;;;;;;;;;;-0.85;63.13;101588.03;4977642;28;20371;-79
2024/01/22 05:52:53;;;;;;;;;;;;;;;-0.77;63.56;101591.19;4995333;28;19913;-79
2024/01/22 05:55:18;;;;;;;;;;;;;;;-0.75;63.31;101586.78;4993924;28;19921;-79
2024/01/22 05:57:43;;;;;;;;;;;;;;;-0.74;63.32;101591.94;4995137;28;19918;-79
2024/01/22 06:00:09;;;;;;;;;;;;;;;-0.76;63.19;101595.47;4995334;28;19921;-79
2024/01/22 06:02:38;;;;;;;;;;;;;;;-0.78;62.47;101589.50;4994271;28;19920;-79
2024/01/22 06:05:03;;;;;;;;;;;;;;;-0.78;62.59;101590.34;4979481;28;19955;-79
2024/01/22 06:07:29;;;;;;;;;;;;;;;-0.77;62.83;101586.84;4995999;28;19914;-79
2024/01/22 06:09:54;;;;;;;;;;;;;;;-0.75;62.61;101600.59;4993039;28;19968;-79
2024/01/22 06:12:19;;;;;;;;;;;;;;;-0.72;62.56;101600.53;4994711;28;19914;-79
2024/01/22 06:14:44;;;;;;;;;;;;;;;-0.72;62.25;101607.47;4994818;28;20318;-79
2024/01/22 06:17:10;;;;;;;;;;;;;;;-0.77;62.00;101612.78;4994691;28;19968;-79
2024/01/22 06:19:35;;;;;;;;;;;;;;;-0.78;61.98;101605.06;4994072;28;20343;-79
2024/01/22 06:22:01;;;;;;;;;;;;;;;-0.82;61.63;101609.50;4995152;28;19993;-79
2024/01/22 06:24:26;;;;;;;;;;;;;;;-0.87;62.39;101607.97;4994516;28;19921;-79
2024/01/22 06:26:51;;;;;;;;;;;;;;;-0.92;61.94;101610.72;4986038;28;20391;-79
2024/01/22 06:29:18;;;;;;;;;;;;;;;-0.97;62.25;101617.81;4994833;28;19914;-79
2024/01/22 06:31:43;;;;;;;;;;;;;;;-0.92;62.35;101618.50;4994778;28;19914;-79
2024/01/22 06:34:08;;;;;;;;;;;;;;;-0.87;62.87;101608.81;4994454;28;19914;-79
2024/01/22 06:36:34;;;;;;;;;;;;;;;-0.84;61.91;101618.25;4994652;28;19917;-79
2024/01/22 06:38:59;;;;;;;;;;;;;;;-0.82;62.15;101613.84;4994848;28;19918;-79
2024/01/22 06:41:25;;;;;;;;;;;;;;;-0.75;62.22;101610.13;4994817;28;19914;-79
2024/01/22 06:43:50;;;;;;;;;;;;;;;-0.66;62.16;101612.41;5010119;28;19924;-79
2024/01/22 06:46:16;;;;;;;;;;;;;;;-0.59;62.02;101616.47;4997190;28;19960;-79
2024/01/22 06:48:41;;;;;;;;;;;;;;;-0.59;61.07;101626.84;4982509;28;19933;-79
2024/01/22 06:51:08;;;;;;;;;;;;;;;-0.63;61.22;101620.09;4993607;28;20012;-79
2024/01/22 06:53:34;;;;;;;;;;;;;;;-0.59;61.89;101619.06;4994379;28;19914;-79
2024/01/22 06:55:59;;;;;;;;;;;;;;;-0.54;60.97;101624.09;4994723;28;19914;-79
2024/01/22 06:58:24;;;;;;;;;;;;;;;-0.60;60.72;101627.75;4993406;28;20013;-80
2024/01/22 07:00:51;;;;;;;;;;;;;;;-0.57;61.09;101621.63;4974967;28;19992;-79
2024/01/22 07:03:17;;;;;;;;;;;;;;;-0.55;60.86;101620.66;4989796;28;19917;-79
2024/01/22 07:05:42;;;;;;;;;;;;;;;-0.50;60.97;101623.94;4981221;28;19941;-79
2024/01/22 07:08:07;;;;;;;;;;;;;;;-0.44;61.88;101623.69;4958207;28;19918;-79
2024/01/22 07:10:33;;;;;;;;;;;;;;;-0.42;60.49;101634.88;4958374;28;19914;-79
2024/01/22 07:12:58;;;;;;;;;;;;;;;-0.39;61.11;101637.34;4975977;28;19914;-79
2024/01/22 07:15:23;;;;;;;;;;;;;;;-0.44;61.00;101626.28;4976122;28;19910;-78
2024/01/22 07:17:50;;;;;;;;;;;;;;;-0.42;60.34;101634.88;4981510;28;19922;-79
2024/01/22 07:20:15;;;;;;;;;;;;;;;-0.36;61.04;101634.63;4994806;28;19949;-79
2024/01/22 07:22:43;;;;;;;;;;;;;;;-0.29;60.97;101630.06;4994644;28;20486;-79
2024/01/22 07:25:09;;;;;;;;;;;;;;;-0.23;60.75;101631.59;4993132;28;19925;-81
2024/01/22 07:27:38;;;;;;;;;;;;;;;-0.21;60.63;101635.81;4993350;28;19914;-79
2024/01/22 07:30:07;;;;;;;;;;;;;;;-0.28;60.59;101631.75;4975515;28;19924;-79
2024/01/22 07:32:36;;;;;;;;;;;;;;;-0.31;60.35;101634.47;4995475;28;20287;-79
2024/01/22 07:35:01;;;;;;;;;;;;;;;-0.30;60.49;101633.56;4978503;28;20319;-81
2024/01/22 07:37:26;;;;;;;;;;;;;;;-0.24;61.01;101641.13;4979498;28;19922;-79
2024/01/22 07:39:52;;;;;;;;;;;;;;;-0.17;61.45;101642.56;4958753;28;19957;-79
2024/01/22 07:42:17;;;;;;;;;;;;;;;-0.15;59.88;101632.97;4987723;28;19918;-79
2024/01/22 07:44:42;;;;;;;;;;;;;;;-0.16;60.06;101639.06;4992572;28;20426;-80
2024/01/22 07:47:09;;;;;;;;;;;;;;;-0.08;60.96;101634.44;4996248;28;19914;-79
2024/01/22 07:49:34;;;;;;;;;;;;;;;-0.02;60.43;101644.59;4995273;28;19996;-78
2024/01/22 07:51:59;;;;;;;;;;;;;;;0.00;60.50;101641.97;4978081;28;19913;-79
2024/01/22 07:54:24;;;;;;;;;;;;;;;0.02;60.44;101631.50;4995951;28;19917;-79
2024/01/22 07:56:50;;;;;;;;;;;;;;;0.05;60.38;101631.41;4995951;28;19917;-80
2024/01/22 07:59:15;;;;;;;;;;;;;;;0.10;60.51;101635.50;4996172;28;20284;-79
2024/01/22 08:01:41;;;;;;;;;;;;;;;0.08;59.93;101639.91;4994761;28;19986;-79
2024/01/22 08:04:06;;;;;;;;;;;;;;;0.14;59.56;101633.63;4990339;28;19925;-79
2024/01/22 08:06:31;;;;;;;;;;;;;;;0.20;60.30;101636.84;4959900;28;20130;-79
2024/01/22 08:08:58;;;;;;;;;;;;;;;0.24;60.57;101634.97;4976844;28;19922;-79
2024/01/22 08:11:23;;;;;;;;;;;;;;;0.31;60.11;101639.84;4976869;28;20379;-79
2024/01/22 08:13:48;;;;;;;;;;;;;;;0.38;59.65;101631.81;4977405;28;19914;-80
2024/01/22 08:16:14;;;;;;;;;;;;;;;0.49;60.11;101637.41;4961474;28;19910;-79
2024/01/22 08:18:39;;;;;;;;;;;;;;;0.56;60.46;101634.50;4979673;28;19918;-79
2024/01/22 08:21:04;;;;;;;;;;;;;;;0.61;59.71;101629.94;4978896;28;19981;-80
2024/01/22 08:23:29;;;;;;;;;;;;;;;0.64;59.07;101621.19;4982015;28;19918;-79
2024/01/22 08:25:55;;;;;;;;;;;;;;;0.63;59.36;101620.34;4996638;28;20399;-79
2024/01/22 08:28:20;;;;;;;;;;;;;;;0.71;59.73;101632.16;4997754;28;19925;-79
2024/01/22 08:30:45;;;;;;;;;;;;;;;0.76;59.76;101631.09;4996875;28;20123;-79
2024/01/22 08:33:10;;;;;;;;;;;;;;;0.81;59.43;101628.31;4999190;28;19913;-79
2024/01/22 08:35:36;;;;;;;;;;;;;;;0.79;58.54;101627.53;4997195;28;20426;-79
2024/01/22 08:38:01;;;;;;;;;;;;;;;0.76;59.21;101631.09;4992939;28;19925;-80
2024/01/22 08:40:27;;;;;;;;;;;;;;;0.75;59.08;101637.22;4998437;28;19918;-80
2024/01/22 08:42:53;;;;;;;;;;;;;;;0.83;59.24;101637.72;4999405;28;19925;-80
2024/01/22 08:45:19;;;;;;;;;;;;;;;0.90;59.32;101638.31;5000655;28;19921;-80
2024/01/22 08:47:45;;;;;;;;;;;;;;;0.88;58.42;101640.13;4981910;28;19913;-80
2024/01/22 08:50:15;;;;;;;;;;;;;;;0.94;59.74;101626.88;5000396;28;19914;-80
2024/01/22 08:52:42;;;;;;;;;;;;;;;1.01;59.68;101635.25;5000317;28;19913;-80
2024/01/22 08:55:07;;;;;;;;;;;;;;;1.04;59.17;101625.56;4994158;28;20323;-80
2024/01/22 08:57:33;;;;;;;;;;;;;;;1.07;58.71;101628.03;4979408;28;19926;-80
2024/01/22 08:59:58;;;;;;;;;;;;;;;1.06;58.96;101618.53;4979218;28;19917;-80
2024/01/22 09:02:23;;;;;;;;;;;;;;;1.07;58.79;101617.63;4979766;28;19918;-80
2024/01/22 09:04:49;;;;;;;;;;;;;;;1.20;58.72;101610.97;4979107;28;19915;-80
2024/01/22 09:07:14;;;;;;;;;;;;;;;1.27;58.60;101609.78;4963236;28;19942;-80
2024/01/22 09:09:40;;;;;;;;;;;;;;;1.24;57.17;101604.72;4979122;28;19914;-79
2024/01/22 09:12:06;;;;;;;;;;;;;;;1.30;58.27;101606.22;4978026;28;19914;-79
2024/01/22 09:14:31;;;;;;;;;;;;;;;1.35;58.33;101608.59;4989516;28;19910;-80
2024/01/22 09:16:56;;;;;;;;;;;;;;;1.34;57.34;101597.34;4996664;28;20387;-79
2024/01/22 09:19:21;;;;;;;;;;;;;;;1.43;58.94;101596.94;4997197;28;19992;-79
2024/01/22 09:21:47;;;;;;;;;;;;;;;1.47;57.58;101592.44;4997503;28;20387;-80
2024/01/22 09:24:12;;;;;;;;;;;;;;;1.56;57.49;101585.09;4979604;28;19952;-79
2024/01/22 09:26:37;;;;;;;;;;;;;;;1.59;56.46;101591.91;4996178;28;20381;-79
2024/01/22 09:29:02;;;;;;;;;;;;;;;1.59;57.16;101584.09;4977952;28;19929;-79
2024/01/22 09:31:29;;;;;;;;;;;;;;;1.61;55.43;101569.25;4991524;28;19924;-78
2024/01/22 09:33:54;;;;;;;;;;;;;;;1.73;57.09;101568.69;4995361;28;19972;-80
2024/01/22 09:36:21;;;;;;;;;;;;;;;1.77;56.79;101567.63;4994983;28;20311;-79
2024/01/22 09:38:46;;;;;;;;;;;;;;;1.79;56.32;101567.53;4992706;28;20009;-79
2024/01/22 09:41:13;;;;;;;;;;;;;;;1.88;56.06;101569.72;4957815;28;20402;-79
2024/01/22 09:43:39;;;;;;;;;;;;;;;1.97;55.86;101569.28;4975260;28;19914;-79
2024/01/22 09:46:05;;;;;;;;;;;;;;;2.05;57.01;101568.91;4982748;28;19936;-79
2024/01/22 09:48:32;;;;;;;;;;;;;;;2.11;56.46;101569.44;4992576;28;19918;-79
2024/01/22 09:50:59;;;;;;;;;;;;;;;2.14;54.01;101558.88;4977029;28;20292;-79
2024/01/22 09:53:27;;;;;;;;;;;;;;;2.25;55.40;101558.38;4992154;28;19984;-79
2024/01/22 09:55:53;;;;;;;;;;;;;;;2.28;53.41;101550.41;4993461;28;19914;-79
2024/01/22 09:58:27;;;;;;;;;;;;;;;2.40;55.15;101548.97;4993787;28;20376;-78
2024/01/22 10:00:53;;;;;;;;;;;;;;;2.41;54.47;101553.25;4990510;28;19988;-79
2024/01/22 10:03:18;;;;;;;;;;;;;;;2.48;55.23;101546.81;4992352;28;19918;-78
2024/01/22 10:05:45;;;;;;;;;;;;;;;2.49;55.13;101536.31;4992786;28;19924;-78
2024/01/22 10:08:10;;;;;;;;;;;;;;;2.59;55.29;101533.22;4990854;28;19917;-78
2024/01/22 10:10:37;;;;;;;;;;;;;;;2.65;55.84;101531.16;4982817;28;19944;-79
2024/01/22 10:13:03;;;;;;;;;;;;;;;2.68;56.15;101527.53;4994178;28;19918;-78
2024/01/22 10:15:29;;;;;;;;;;;;;;;2.81;55.77;101524.22;4977413;28;20385;-80
2024/01/22 10:18:12;;;;;;;;;;;;;;;2.88;56.27;101522.13;4993278;28;20016;-80
2024/01/22 10:20:38;;;;;;;;;;;;;;;2.90;54.81;101520.28;4992958;28;20466;-78
2024/01/22 10:23:03;;;;;;;;;;;;;;;2.93;54.50;101506.22;4969129;28;19972;-78
2024/01/22 10:25:29;;;;;;;;;;;;;;;2.97;55.67;101508.59;4992940;28;19918;-79
2024/01/22 10:28:08;;;;;;;;;;;;;;;2.94;54.56;101505.31;4993535;28;20012;-79
2024/01/22 10:30:34;;;;;;;;;;;;;;;2.96;54.98;101498.25;4992684;28;19968;-79
2024/01/22 10:33:10;;;;;;;;;;;;;;;3.02;55.74;101506.63;4992800;28;19918;-78
2024/01/22 10:35:35;;;;;;;;;;;;;;;2.98;54.27;101497.28;4993546;28;19964;-78
2024/01/22 10:38:08;;;;;;;;;;;;;;;3.01;55.11;101488.44;4977728;28;19965;-77
2024/01/22 10:40:33;;;;;;;;;;;;;;;3.04;55.83;101480.44;4993248;28;19918;-78
2024/01/22 10:42:58;;;;;;;;;;;;;;;3.04;54.88;101472.63;4988747;28;20532;-77
2024/01/22 10:45:25;;;;;;;;;;;;;;;3.11;56.10;101477.41;4989477;28;19972;-79
2024/01/22 10:47:51;;;;;;;;;;;;;;;3.00;53.31;101458.88;4993199;28;19972;-78
2024/01/22 10:50:18;;;;;;;;;;;;;;;3.10;54.54;101457.47;4992335;28;19976;-77
2024/01/22 10:52:44;;;;;;;;;;;;;;;3.12;55.01;101454.78;4991112;28;20391;-78
2024/01/22 10:55:09;;;;;;;;;;;;;;;3.21;54.42;101458.66;4994060;28;20409;-77
2024/01/22 10:57:41;;;;;;;;;;;;;;;3.28;54.27;101450.38;4990372;28;19964;-77
2024/01/22 11:00:07;;;;;;;;;;;;;;;3.27;53.11;101448.72;4993739;28;19918;-78
2024/01/22 11:02:34;;;;;;;;;;;;;;;3.27;51.42;101440.03;4990749;28;19918;-78
2024/01/22 11:05:11;;;;;;;;;;;;;;;3.33;53.69;101431.88;4989893;28;19967;-78
2024/01/22 11:07:39;;;;;;;;;;;;;;;3.30;53.37;101427.66;4975473;28;19922;-78
2024/01/22 11:10:05;;;;;;;;;;;;;;;3.30;53.52;101432.03;4993424;28;19926;-78
2024/01/22 11:12:36;;;;;;;;;;;;;;;3.26;52.87;101423.53;4980844;28;20394;-78
2024/01/22 11:15:01;;;;;;;;;;;;;;;3.29;53.53;101428.59;4976068;28;19976;-78
2024/01/22 11:17:27;;;;;;;;;;;;;;;3.30;52.96;101422.44;4991051;28;20767;-78
2024/01/22 11:20:12;;;;;;;;;;;;;;;3.30;51.50;101427.66;4981898;28;20012;-78
2024/01/22 11:22:37;;;;;;;;;;;;;;;3.33;53.54;101429.25;4991089;28;19921;-78
2024/01/22 11:25:06;;;;;;;;;;;;;;;3.31;52.75;101424.13;4989504;28;19925;-78
2024/01/22 11:27:41;;;;;;;;;;;;;;;3.36;52.27;101435.16;4976428;28;19925;-78
2024/01/22 11:30:22;;;;;;;;;;;;;;;3.34;52.98;101430.94;4956787;28;19929;-78
2024/01/22 11:32:48;;;;;;;;;;;;;;;3.34;53.20;101429.16;4973540;28;19926;-78
2024/01/22 11:35:31;;;;;;;;;;;;;;;3.27;52.83;101432.19;4972636;28;19922;-78
2024/01/22 11:37:56;;;;;;;;;;;;;;;3.27;52.91;101432.19;4992028;28;20005;-78
2024/01/22 11:40:42;;;;;;;;;;;;;;;3.23;52.83;101439.38;4992583;28;19956;-78
2024/01/22 11:43:07;;;;;;;;;;;;;;;3.26;53.42;101431.38;4992062;28;19924;-78
2024/01/22 11:45:33;;;;;;;;;;;;;;;3.22;53.51;101434.22;4991860;28;19996;-77
2024/01/22 11:47:58;;;;;;;;;;;;;;;3.23;54.56;101431.53;4988895;28;20437;-78
2024/01/22 11:50:24;;;;;;;;;;;;;;;3.27;53.64;101432.19;4990111;28;20104;-78
2024/01/22 11:52:49;;;;;;;;;;;;;;;3.28;52.76;101433.88;4992966;28;19984;-78
2024/01/22 11:55:14;;;;;;;;;;;;;;;3.30;54.18;101427.66;4991280;28;19918;-78
2024/01/22 11:57:39;;;;;;;;;;;;;;;3.33;53.17;101424.03;4973213;28;20307;-78
2024/01/22 12:00:11;;;;;;;;;;;;;;;3.31;53.67;101426.72;4991666;28;19917;-78
2024/01/22 12:02:37;;;;;;;;;;;;;;;3.32;53.98;101428.41;4988574;28;19918;-78
2024/01/22 12:05:04;;;;;;;;;;;;;;;3.22;52.33;101421.19;4992533;28;19944;-77
2024/01/22 12:07:55;;;;;;;;;;;;;;;3.28;54.34;101418.22;4990564;28;19913;-78
2024/01/22 12:10:20;;;;;;;;;;;;;;;3.32;53.63;101414.50;4974558;28;19925;-78
2024/01/22 12:12:54;;;;;;;;;;;;;;;3.28;53.11;101410.41;4990186;28;19914;-78
2024/01/22 12:15:20;;;;;;;;;;;;;;;3.29;53.41;101405.09;4987894;28;19926;-78
2024/01/22 12:17:45;;;;;;;;;;;;;;;3.29;52.29;101405.09;4995385;28;19928;-78
2024/01/22 12:20:10;;;;;;;;;;;;;;;3.38;52.75;101404.56;4994823;28;19922;-78
2024/01/22 12:22:36;;;;;;;;;;;;;;;3.35;50.70;101402.13;4992898;28;19924;-78
2024/01/22 12:25:08;;;;;;;;;;;;;;;3.36;50.48;101395.13;4991464;28;19924;-78
2024/01/22 12:27:33;;;;;;;;;;;;;;;3.34;51.46;101395.22;4995694;28;19925;-78
2024/01/22 12:30:03;;;;;;;;;;;;;;;3.35;51.79;101389.06;4978882;28;19918;-78
2024/01/22 12:32:28;;;;;;;;;;;;;;;3.32;52.06;101385.78;4977648;28;20008;-78
2024/01/22 12:34:54;;;;;;;;;;;;;;;3.27;48.38;101383.44;4992119;28;19949;-78